Aérodrome :
LOGIN :

S'inscrire | Disclaimer

   EN    FR    IT 

 










Légende :    VFR   VFR Marginal   IFR   IFR Intensif   IFR Très Intensif
Visi : 
Plafond : 
>= 8 km
>= 3000ft
5 à 8 km
1000 à 3000 ft
1500m à 5 km
500 à 1000 ft
800 à 1500m
200 à 500 ft
< 800m
< 200 ft
Symboles :   Orages  Brouillard  Fortes neiges  Fortes précipitations  Vent > 20 kt
SIGMETs :   Divers  Orages  Givrage  Turbulence  Onde Orograph.  Cendres Volcan.







- Altitude de l'aérodrome : 1367 ft
- Code IATA : FDH


EDNY - Friedrichshafen

DERNIER METAR :
  • 230820Z 24009KT CAVOK 28/18 Q1017

METARs EXPIRÉS :
  • 230750Z 26007KT 220V300 CAVOK 27/18 Q1017
  • 230720Z 24007KT CAVOK 27/19 Q1017
  • 230650Z 21005KT 180V250 CAVOK 27/19 Q1017
  • 230620Z VRB02KT CAVOK 26/19 Q1017
  • 230550Z VRB01KT CAVOK 26/19 Q1017

TAF TAF EDNY
Valide du 23 à 06h jusqu'au 24 à 06h UTC


230500Z 2306/2406 VRB02KT 9999 SCT040
BECMG 2307/2309 24008KT
TEMPO 2311/2316 27015G25KT TSRA BKN050CB
BECMG 2322/2324 05005KT
BECMG 2404/2406 24005KT
Pas de NOTAMs connus pour ce terrain.



MET'MAP, la Météo Aéronautique d'un coup d'oeil ! - Copyright ORBIFLY Décembre 2007 - Disclaimer

ORBIFLY MET'MAP TEAM :

Programmation & Développement : Alexandra Zaïnal
Conception & Développement : Baudouin d'Aumeries
Co-Programmation & Développement : Marc-Olivier Méhu
Soutien technique & logistique : Manuel Goepfert

Contact : metmap@orbifly.com




SOURCES & CREDITS :

   NOAA